Terminal Aerodrome Forecast
Issued by NWS

Home | Current Version | Previous Version | Text Only | Print | Product List | Glossary On
Versions: 1 2 3 4 5 6 7 8 9 10 11 12 13 14 15 16
000
FTUS46 KSGX 281123
TAFONT
TAF
KONT 281123Z 2812/2918 VRB04KT 5SM BR SCT010
     FM281300 VRB04KT 5SM BR BKN009
     FM281600 VRB03KT 6SM HZ SCT012
     FM282100 26011KT P6SM SKC
     FM290400 25005KT P6SM SKC
     FM291200 VRB04KT 5SM BR SCT005
     FM291500 VRB04KT P6SM SKC=

USA.gov is the U.S. government's official web portal to all federal, state and local government web resources and services.